createdAt,value
2023-01-21T00:01:09.965Z,102053.94
2023-01-21T00:03:38.512Z,102057.44
2023-01-21T00:06:07.053Z,102060.97
2023-01-21T00:08:34.972Z,102052.19
2023-01-21T00:11:06.506Z,102060.97
2023-01-21T00:13:36.707Z,102054.81
2023-01-21T00:16:05.300Z,102057.44
2023-01-21T00:18:33.537Z,102053.03
2023-01-21T00:21:01.700Z,102053.97
2023-01-21T00:23:29.519Z,102055.69
2023-01-21T00:26:00.647Z,102044.25
2023-01-21T00:28:32.423Z,102053.91
2023-01-21T00:31:03.242Z,102053.91
2023-01-21T00:33:32.554Z,102055.63
2023-01-21T00:36:01.442Z,102052.03
2023-01-21T00:38:29.264Z,102061.63
2023-01-21T00:41:01.313Z,102056.38
2023-01-21T00:43:29.113Z,102058.16
2023-01-21T00:45:56.996Z,102057.28
2023-01-21T00:48:26.923Z,102049.34
2023-01-21T00:50:56.097Z,102053.78
2023-01-21T00:53:24.186Z,102053.00
2023-01-21T00:55:51.890Z,102050.38
2023-01-21T00:58:19.863Z,102053.03
2023-01-21T01:00:47.551Z,102050.34
2023-01-21T01:03:15.324Z,102047.75
2023-01-21T01:05:44.504Z,102050.38
2023-01-21T01:08:12.193Z,102053.00
2023-01-21T01:10:40.121Z,102055.59
2023-01-21T01:13:07.833Z,102055.50
2023-01-21T01:15:35.601Z,102052.84
2023-01-21T01:18:03.442Z,102058.94
2023-01-21T01:20:31.225Z,102051.94
2023-01-21T01:23:00.288Z,102056.31
2023-01-21T01:25:27.991Z,102055.50
2023-01-21T01:27:55.723Z,102052.91
2023-01-21T01:30:23.488Z,102057.38
2023-01-21T01:32:51.256Z,102049.47
2023-01-21T01:35:19.059Z,102052.06
2023-01-21T01:37:46.745Z,102053.69
2023-01-21T01:40:16.328Z,102060.78
2023-01-21T01:42:44.284Z,102054.56
2023-01-21T01:45:19.076Z,102058.00
2023-01-21T01:47:50.110Z,102055.38
2023-01-21T01:50:21.290Z,102058.91
2023-01-21T01:52:49.138Z,102057.06
2023-01-21T01:55:18.425Z,102050.84
2023-01-21T01:57:52.451Z,102057.06
2023-01-21T02:00:21.611Z,102052.78
2023-01-21T02:03:03.415Z,102057.22
2023-01-21T02:05:32.386Z,102058.09
2023-01-21T02:08:00.791Z,102061.47
2023-01-21T02:10:31.721Z,102063.13
2023-01-21T02:12:59.634Z,102078.00
2023-01-21T02:15:34.689Z,102077.06
2023-01-21T02:18:13.061Z,102076.16
2023-01-21T02:21:10.493Z,102065.38
2023-01-21T02:24:00.523Z,102068.19
2023-01-21T02:27:03.982Z,102081.47
2023-01-21T02:29:52.686Z,102077.22
2023-01-21T02:32:45.499Z,102080.59
2023-01-21T02:35:19.689Z,102080.47
2023-01-21T02:37:53.545Z,102085.81
2023-01-21T02:40:30.395Z,102095.53
2023-01-21T02:43:04.789Z,102092.97
2023-01-21T02:45:39.494Z,102100.09
2023-01-21T02:48:11.736Z,102100.75
2023-01-21T02:50:45.268Z,102094.56
2023-01-21T02:53:22.791Z,102098.06
2023-01-21T02:55:50.770Z,102107.63
2023-01-21T02:58:22.255Z,102109.22
2023-01-21T03:01:00.889Z,102110.06
2023-01-21T03:03:43.430Z,102107.38
2023-01-21T03:06:39.253Z,102104.69
2023-01-21T03:09:18.762Z,102110.97
2023-01-21T03:11:55.035Z,102108.44
2023-01-21T03:14:46.228Z,102111.97
2023-01-21T03:17:22.067Z,102102.44
2023-01-21T03:19:57.562Z,102113.19
2023-01-21T03:22:30.696Z,102109.69
2023-01-21T03:24:59.764Z,102107.00
2023-01-21T03:27:31.135Z,102104.25
2023-01-21T03:30:03.608Z,102112.97
2023-01-21T03:32:34.023Z,102108.63
2023-01-21T03:35:03.216Z,102105.81
2023-01-21T03:37:38.120Z,102106.50
2023-01-21T03:40:19.120Z,102107.31
2023-01-21T03:42:50.417Z,102117.94
2023-01-21T03:45:20.088Z,102105.81
2023-01-21T03:47:55.507Z,102101.47
2023-01-21T03:50:28.486Z,102112.13
2023-01-21T03:52:57.798Z,102113.88
2023-01-21T03:55:25.569Z,102110.38
2023-01-21T03:57:53.340Z,102119.22
2023-01-21T04:00:21.459Z,102121.81
2023-01-21T04:02:49.218Z,102119.28
2023-01-21T04:05:17.007Z,102119.31
2023-01-21T04:07:44.774Z,102114.81
2023-01-21T04:10:14.177Z,102117.69
2023-01-21T04:12:42.054Z,102121.31
2023-01-21T04:15:11.145Z,102124.00
2023-01-21T04:17:38.939Z,102122.22
2023-01-21T04:20:09.075Z,102125.66
2023-01-21T04:22:36.898Z,102131.72
2023-01-21T04:25:05.231Z,102129.84
2023-01-21T04:27:34.423Z,102126.31
2023-01-21T04:30:02.208Z,102131.38
2023-01-21T04:32:29.914Z,102132.22
2023-01-21T04:34:57.720Z,102133.88
2023-01-21T04:37:25.587Z,102135.44
2023-01-21T04:39:53.334Z,102136.94
2023-01-21T04:42:21.154Z,102144.88
2023-01-21T04:44:50.248Z,102136.84
2023-01-21T04:47:18.068Z,102142.31
2023-01-21T04:49:45.829Z,102143.13
2023-01-21T04:52:13.588Z,102139.00
2023-01-21T04:54:41.328Z,102135.72
2023-01-21T04:57:10.791Z,102134.09
2023-01-21T04:59:38.770Z,102130.66
2023-01-21T05:02:07.969Z,102140.47
2023-01-21T05:04:35.881Z,102137.94
2023-01-21T05:07:03.659Z,102145.03
2023-01-21T05:09:31.417Z,102142.50
2023-01-21T05:11:59.258Z,102144.34
2023-01-21T05:14:27.056Z,102143.56
2023-01-21T05:16:54.858Z,102141.84
2023-01-21T05:19:24.146Z,102138.31
2023-01-21T05:21:52.042Z,102138.34
2023-01-21T05:24:19.822Z,102141.84
2023-01-21T05:26:49.588Z,102131.25
2023-01-21T05:29:17.874Z,102133.81
2023-01-21T05:31:46.060Z,102137.34
2023-01-21T05:34:14.198Z,102142.63
2023-01-21T05:36:43.355Z,102137.25
2023-01-21T05:39:11.132Z,102140.66
2023-01-21T05:41:38.831Z,102136.41
2023-01-21T05:44:07.069Z,102137.13
2023-01-21T05:46:34.878Z,102134.59
2023-01-21T05:49:02.627Z,102146.06
2023-01-21T05:51:30.422Z,102143.44
2023-01-21T05:53:59.478Z,102139.88
2023-01-21T05:56:27.296Z,102147.75
2023-01-21T05:58:54.994Z,102145.16
2023-01-21T06:01:22.746Z,102144.28
2023-01-21T06:03:50.528Z,102142.56
2023-01-21T06:06:18.313Z,102139.88
2023-01-21T06:08:46.103Z,102151.28
2023-01-21T06:11:15.243Z,102153.97
2023-01-21T06:13:43.036Z,102153.06
2023-01-21T06:16:10.884Z,102158.34
2023-01-21T06:18:38.693Z,102159.22
2023-01-21T06:21:06.851Z,102169.84
2023-01-21T06:23:34.611Z,102166.34
2023-01-21T06:26:03.032Z,102169.94
2023-01-21T06:28:32.222Z,102174.31
2023-01-21T06:31:00.081Z,102163.78
2023-01-21T06:33:27.915Z,102169.91
2023-01-21T06:35:55.643Z,102187.53
2023-01-21T06:38:23.359Z,102189.31
2023-01-21T06:40:51.155Z,102189.31
2023-01-21T06:43:18.902Z,102197.09
2023-01-21T06:45:48.136Z,102196.03
2023-01-21T06:48:15.831Z,102197.56
2023-01-21T06:50:43.649Z,102197.44
2023-01-21T06:53:11.580Z,102198.31
2023-01-21T06:55:39.393Z,102198.44
2023-01-21T06:58:07.224Z,102206.03
2023-01-21T07:00:35.053Z,102206.72
2023-01-21T07:03:04.261Z,102211.81
2023-01-21T07:05:32.201Z,102212.03
2023-01-21T07:08:00.013Z,102215.56
2023-01-21T07:10:27.831Z,102221.44
2023-01-21T07:12:55.541Z,102222.94
2023-01-21T07:15:23.319Z,102221.88
2023-01-21T07:17:52.197Z,102228.06
2023-01-21T07:20:22.620Z,102221.16
2023-01-21T07:22:50.399Z,102231.00
2023-01-21T07:25:18.753Z,102226.91
2023-01-21T07:27:46.656Z,102227.16
2023-01-21T07:30:18.853Z,102230.75
2023-01-21T07:32:46.874Z,102241.25
2023-01-21T07:35:14.835Z,102250.06
2023-01-21T07:37:44.267Z,102250.75
2023-01-21T07:40:13.164Z,102258.66
2023-01-21T07:42:40.982Z,102259.44
2023-01-21T07:45:09.479Z,102264.56
2023-01-21T07:47:37.294Z,102275.28
2023-01-21T07:50:08.510Z,102271.75
2023-01-21T07:52:36.378Z,102279.63
2023-01-21T07:55:07.066Z,102280.59
2023-01-21T07:57:35.725Z,102277.38
2023-01-21T08:00:03.466Z,102279.34
2023-01-21T08:02:31.300Z,102297.03
2023-01-21T08:04:59.086Z,102283.97
2023-01-21T08:07:26.892Z,102284.06
2023-01-21T08:09:54.695Z,102284.94
2023-01-21T08:12:26.365Z,102290.19
2023-01-21T08:14:54.971Z,102289.34
2023-01-21T08:17:22.718Z,102292.00
2023-01-21T08:19:50.539Z,102298.13
2023-01-21T08:22:18.310Z,102297.97
2023-01-21T08:24:46.117Z,102305.75
2023-01-21T08:27:13.918Z,102310.91
2023-01-21T08:29:42.995Z,102311.78
2023-01-21T08:32:10.806Z,102317.88
2023-01-21T08:34:38.581Z,102331.69
2023-01-21T08:37:06.420Z,102326.44
2023-01-21T08:39:34.177Z,102330.13
2023-01-21T08:42:02.069Z,102325.84
2023-01-21T08:44:29.811Z,102328.66
2023-01-21T08:46:58.927Z,102327.06
2023-01-21T08:49:26.631Z,102327.88
2023-01-21T08:51:54.671Z,102327.94
2023-01-21T08:54:22.358Z,102327.97
2023-01-21T08:56:50.114Z,102332.38
2023-01-21T08:59:17.974Z,102333.38
2023-01-21T09:01:45.714Z,102327.25
2023-01-21T09:04:14.781Z,102336.91
2023-01-21T09:06:42.587Z,102336.00
2023-01-21T09:09:12.148Z,102339.66
2023-01-21T09:11:40.076Z,102352.91
2023-01-21T09:14:07.888Z,102340.59
2023-01-21T09:16:36.393Z,102350.31
2023-01-21T09:19:04.417Z,102351.22
2023-01-21T09:21:35.863Z,102345.22
2023-01-21T09:24:03.752Z,102352.34
2023-01-21T09:26:31.538Z,102355.09
2023-01-21T09:29:00.469Z,102357.75
2023-01-21T09:31:30.196Z,102359.50
2023-01-21T09:34:00.396Z,102362.16
2023-01-21T09:36:32.135Z,102366.66
2023-01-21T09:39:01.700Z,102363.16
2023-01-21T09:41:31.850Z,102366.66
2023-01-21T09:44:08.506Z,102363.13
2023-01-21T09:46:42.850Z,102364.03
2023-01-21T09:49:16.552Z,102370.19
2023-01-21T09:51:52.746Z,102367.56
2023-01-21T09:54:27.545Z,102372.84
2023-01-21T09:57:21.320Z,102378.22
2023-01-21T10:00:02.103Z,102380.84
2023-01-21T10:02:38.464Z,102385.25
2023-01-21T10:05:40.127Z,102390.53
2023-01-21T10:08:14.998Z,102391.38
2023-01-21T10:10:50.305Z,102395.81
2023-01-21T10:13:48.483Z,102400.22
2023-01-21T10:16:23.298Z,102405.50
2023-01-21T10:18:53.389Z,102408.19
2023-01-21T10:21:32.083Z,102411.69
2023-01-21T10:24:05.330Z,102416.97
2023-01-21T10:26:35.763Z,102416.06
2023-01-21T10:29:03.755Z,102413.34
2023-01-21T10:31:40.207Z,102413.38
2023-01-21T10:34:14.019Z,102415.19
2023-01-21T10:36:58.341Z,102419.59
2023-01-21T10:39:37.438Z,102431.97
2023-01-21T10:42:31.591Z,102429.34
2023-01-21T10:45:02.703Z,102431.06
2023-01-21T10:47:40.790Z,102431.13
2023-01-21T10:50:25.797Z,102424.88
2023-01-21T10:53:01.219Z,102425.72
2023-01-21T10:55:41.838Z,102433.72
2023-01-21T10:58:28.635Z,102435.44
2023-01-21T11:00:59.893Z,102435.31
2023-01-21T11:03:35.072Z,102432.63
2023-01-21T11:06:06.888Z,102442.38
2023-01-21T11:08:34.775Z,102445.03
2023-01-21T11:11:04.109Z,102439.75
2023-01-21T11:13:33.650Z,102449.50
2023-01-21T11:16:02.519Z,102452.97
2023-01-21T11:18:33.208Z,102455.63
2023-01-21T11:21:03.369Z,102452.00
2023-01-21T11:23:32.764Z,102450.38
2023-01-21T11:26:05.909Z,102450.16
2023-01-21T11:28:35.426Z,102447.56
2023-01-21T11:31:11.759Z,102448.47
2023-01-21T11:33:40.686Z,102442.25
2023-01-21T11:36:14.628Z,102441.25
2023-01-21T11:38:43.147Z,102439.53
2023-01-21T11:41:20.979Z,102434.41
2023-01-21T11:43:52.376Z,102437.78
2023-01-21T11:46:36.619Z,102439.59
2023-01-21T11:49:25.670Z,102446.56
2023-01-21T11:52:13.653Z,102441.34
2023-01-21T11:54:41.374Z,102436.13
2023-01-21T11:57:22.639Z,102442.25
2023-01-21T11:59:53.255Z,102434.41
2023-01-21T12:02:23.821Z,102434.44
2023-01-21T12:04:56.599Z,102436.19
2023-01-21T12:07:28.167Z,102432.56
2023-01-21T12:10:06.352Z,102432.59
2023-01-21T12:12:47.448Z,102436.16
2023-01-21T12:15:35.968Z,102436.22
2023-01-21T12:18:17.958Z,102425.56
2023-01-21T12:20:53.536Z,102430.84
2023-01-21T12:23:38.244Z,102425.41
2023-01-21T12:26:28.560Z,102427.19
2023-01-21T12:29:09.232Z,102416.72
2023-01-21T12:31:43.562Z,102414.09
2023-01-21T12:34:17.345Z,102414.09
2023-01-21T12:36:50.869Z,102412.22
2023-01-21T12:39:21.223Z,102411.34
2023-01-21T12:41:56.601Z,102404.28
2023-01-21T12:44:32.376Z,102408.69
2023-01-21T12:47:09.955Z,102406.00
2023-01-21T12:50:00.679Z,102403.31
2023-01-21T12:52:39.518Z,102401.50
2023-01-21T12:55:17.174Z,102406.63
2023-01-21T12:57:50.992Z,102404.94
2023-01-21T13:00:23.372Z,102401.44
2023-01-21T13:03:01.167Z,102402.22
2023-01-21T13:05:37.406Z,102400.25
2023-01-21T13:08:32.779Z,102399.56
2023-01-21T13:11:06.096Z,102397.13
2023-01-21T13:13:38.781Z,102392.16
2023-01-21T13:16:10.921Z,102382.56
2023-01-21T13:18:43.460Z,102396.00
2023-01-21T13:21:28.393Z,102392.53
2023-01-21T13:24:01.352Z,102395.03
2023-01-21T13:26:33.771Z,102396.16
2023-01-21T13:29:10.225Z,102395.81
2023-01-21T13:31:47.402Z,102401.16
2023-01-21T13:34:23.456Z,102396.72
2023-01-21T13:37:02.433Z,102392.09
2023-01-21T13:39:35.832Z,102394.81
2023-01-21T13:42:26.205Z,102403.88
2023-01-21T13:45:09.075Z,102401.91
2023-01-21T13:48:00.714Z,102400.34
2023-01-21T13:50:46.477Z,102401.91
2023-01-21T13:53:37.116Z,102404.50
2023-01-21T13:56:23.007Z,102400.88
2023-01-21T13:58:57.537Z,102399.13
2023-01-21T14:01:31.038Z,102402.78
2023-01-21T14:04:03.151Z,102409.78
2023-01-21T14:06:38.897Z,102414.16
2023-01-21T14:09:14.682Z,102408.91
2023-01-21T14:11:45.825Z,102412.41
2023-01-21T14:14:42.962Z,102416.75
2023-01-21T14:17:35.571Z,102415.13
2023-01-21T14:20:36.721Z,102414.34
2023-01-21T14:23:38.238Z,102417.72
2023-01-21T14:26:20.560Z,102409.28
2023-01-21T14:28:58.622Z,102405.38
2023-01-21T14:31:32.866Z,102410.75
2023-01-21T14:34:05.833Z,102408.09
2023-01-21T14:36:39.679Z,102410.69
2023-01-21T14:39:21.408Z,102420.13
2023-01-21T14:42:02.081Z,102418.59
2023-01-21T14:44:37.774Z,102427.38
2023-01-21T14:47:23.921Z,102426.47
2023-01-21T14:49:53.270Z,102437.25
2023-01-21T14:52:23.214Z,102430.81
2023-01-21T14:54:52.388Z,102444.16
2023-01-21T14:57:27.643Z,102446.91
2023-01-21T15:00:03.152Z,102443.50
2023-01-21T15:02:34.259Z,102440.88
2023-01-21T15:05:12.901Z,102453.53
2023-01-21T15:07:43.711Z,102451.28
2023-01-21T15:10:19.035Z,102461.19
2023-01-21T15:12:52.793Z,102455.13
2023-01-21T15:15:29.394Z,102454.06
2023-01-21T15:18:23.318Z,102454.25
2023-01-21T15:20:53.059Z,102453.22
2023-01-21T15:23:38.204Z,102458.41
2023-01-21T15:26:20.616Z,102458.44
2023-01-21T15:28:49.566Z,102454.00
2023-01-21T15:31:42.245Z,102455.78
2023-01-21T15:34:15.556Z,102456.75
2023-01-21T15:36:48.480Z,102460.91
2023-01-21T15:39:19.041Z,102467.38
2023-01-21T15:42:01.036Z,102459.44
2023-01-21T15:44:48.598Z,102456.66
2023-01-21T15:47:40.080Z,102470.03
2023-01-21T15:50:20.945Z,102469.13
2023-01-21T15:53:06.710Z,102478.16
2023-01-21T15:56:01.572Z,102479.06
2023-01-21T15:58:41.329Z,102464.00
2023-01-21T16:01:18.939Z,102475.66
2023-01-21T16:04:13.567Z,102479.16
2023-01-21T16:06:51.751Z,102491.56
2023-01-21T16:09:30.436Z,102495.97
2023-01-21T16:12:12.561Z,102498.88
2023-01-21T16:14:54.408Z,102496.13
2023-01-21T16:17:28.002Z,102502.31
2023-01-21T16:19:57.503Z,102507.78
2023-01-21T16:22:29.113Z,102515.72
2023-01-21T16:25:02.483Z,102513.06
2023-01-21T16:27:31.804Z,102512.19
2023-01-21T16:30:02.992Z,102512.28
2023-01-21T16:32:32.395Z,102514.03
2023-01-21T16:35:01.160Z,102524.63
2023-01-21T16:37:30.697Z,102513.16
2023-01-21T16:40:26.795Z,102519.34
2023-01-21T16:43:07.859Z,102514.06
2023-01-21T16:45:37.841Z,102522.91
2023-01-21T16:48:06.003Z,102524.63
2023-01-21T16:50:34.046Z,102527.31
2023-01-21T16:53:08.675Z,102531.72
2023-01-21T16:55:45.425Z,102545.81
2023-01-21T16:58:22.589Z,102537.91
2023-01-21T17:01:10.626Z,102537.88
2023-01-21T17:03:39.370Z,102540.50
2023-01-21T17:06:11.782Z,102536.00
2023-01-21T17:08:40.543Z,102543.94
2023-01-21T17:11:12.030Z,102546.59
2023-01-21T17:13:42.531Z,102552.75
2023-01-21T17:16:21.240Z,102555.34
2023-01-21T17:18:55.619Z,102562.38
2023-01-21T17:21:32.230Z,102565.13
2023-01-21T17:24:03.506Z,102569.53
2023-01-21T17:26:34.593Z,102570.41
2023-01-21T17:29:10.951Z,102588.03
2023-01-21T17:31:42.345Z,102583.59
2023-01-21T17:34:22.508Z,102593.31
2023-01-21T17:36:51.574Z,102598.56
2023-01-21T17:39:53.000Z,102591.44
2023-01-21T17:42:23.320Z,102601.09
2023-01-21T17:44:53.086Z,102604.59
2023-01-21T17:47:24.982Z,102610.75
2023-01-21T17:49:58.274Z,102614.31
2023-01-21T17:52:26.686Z,102616.97
2023-01-21T17:55:13.742Z,102619.63
2023-01-21T17:57:41.571Z,102623.16
2023-01-21T18:00:32.312Z,102620.59
2023-01-21T18:03:01.442Z,102619.50
2023-01-21T18:05:30.041Z,102620.41
2023-01-21T18:07:57.774Z,102626.56
2023-01-21T18:10:28.128Z,102633.53
2023-01-21T18:12:57.813Z,102624.69
2023-01-21T18:15:27.016Z,102633.50
2023-01-21T18:17:56.906Z,102635.28
2023-01-21T18:20:28.660Z,102635.28
2023-01-21T18:22:58.435Z,102638.50
2023-01-21T18:25:27.886Z,102641.19
2023-01-21T18:27:56.693Z,102645.50
2023-01-21T18:30:26.990Z,102657.00
2023-01-21T18:32:55.285Z,102657.97
2023-01-21T18:35:26.976Z,102660.66
2023-01-21T18:37:56.150Z,102657.00
2023-01-21T18:40:24.773Z,102669.38
2023-01-21T18:42:55.470Z,102665.00
2023-01-21T18:45:26.773Z,102670.28
2023-01-21T18:47:55.199Z,102670.31
2023-01-21T18:50:25.311Z,102668.16
2023-01-21T18:52:53.558Z,102670.03
2023-01-21T18:55:26.971Z,102680.81
2023-01-21T18:57:56.859Z,102680.78
2023-01-21T19:00:26.490Z,102678.13
2023-01-21T19:02:56.613Z,102683.47
2023-01-21T19:05:27.888Z,102686.94
2023-01-21T19:07:55.662Z,102684.16
2023-01-21T19:10:24.789Z,102681.59
2023-01-21T19:12:52.674Z,102686.03
2023-01-21T19:15:22.662Z,102687.72
2023-01-21T19:17:52.551Z,102686.66
2023-01-21T19:20:22.531Z,102690.81
2023-01-21T19:22:51.647Z,102684.88
2023-01-21T19:25:20.272Z,102691.06
2023-01-21T19:27:51.258Z,102693.72
2023-01-21T19:30:21.530Z,102700.88
2023-01-21T19:32:50.841Z,102693.75
2023-01-21T19:35:20.455Z,102686.72
2023-01-21T19:37:50.230Z,102697.09
2023-01-21T19:40:20.186Z,102697.97
2023-01-21T19:42:50.361Z,102698.94
2023-01-21T19:45:19.683Z,102699.66
2023-01-21T19:47:49.271Z,102702.94
2023-01-21T19:50:19.169Z,102704.91
2023-01-21T19:52:47.759Z,102698.75
2023-01-21T19:55:16.401Z,102694.28
2023-01-21T19:57:45.512Z,102696.72
2023-01-21T20:00:23.222Z,102695.19
2023-01-21T20:02:51.029Z,102692.41
2023-01-21T20:05:18.806Z,102702.16
2023-01-21T20:07:48.612Z,102696.03
2023-01-21T20:10:18.465Z,102692.41
2023-01-21T20:12:46.930Z,102706.50
2023-01-21T20:15:15.844Z,102702.19
2023-01-21T20:17:47.820Z,102713.88
2023-01-21T20:20:17.966Z,102708.59
2023-01-21T20:22:46.491Z,102710.34
2023-01-21T20:25:16.421Z,102706.81
2023-01-21T20:27:45.589Z,102712.00
2023-01-21T20:30:18.775Z,102712.91
2023-01-21T20:32:49.126Z,102720.00
2023-01-21T20:35:18.025Z,102724.63
2023-01-21T20:37:48.806Z,102720.31
2023-01-21T20:40:20.154Z,102717.78
2023-01-21T20:42:48.515Z,102722.06
2023-01-21T20:45:18.476Z,102719.97
2023-01-21T20:47:50.707Z,102721.50
2023-01-21T20:50:21.429Z,102728.16
2023-01-21T20:52:50.238Z,102727.97
2023-01-21T20:55:21.182Z,102729.50
2023-01-21T20:57:49.227Z,102731.38
2023-01-21T21:00:19.260Z,102732.28
2023-01-21T21:02:47.293Z,102727.13
2023-01-21T21:05:18.947Z,102731.69
2023-01-21T21:07:47.048Z,102738.66
2023-01-21T21:10:21.182Z,102726.94
2023-01-21T21:12:49.866Z,102728.50
2023-01-21T21:15:19.316Z,102724.84
2023-01-21T21:17:47.972Z,102718.56
2023-01-21T21:20:19.767Z,102718.47
2023-01-21T21:22:47.930Z,102721.88
2023-01-21T21:25:17.471Z,102725.22
2023-01-21T21:27:46.237Z,102728.75
2023-01-21T21:30:16.078Z,102738.28
2023-01-21T21:32:44.745Z,102743.44
2023-01-21T21:35:26.139Z,102743.88
2023-01-21T21:37:55.307Z,102744.19
2023-01-21T21:40:25.317Z,102746.88
2023-01-21T21:43:10.822Z,102747.94
2023-01-21T21:45:40.914Z,102745.41
2023-01-21T21:48:34.689Z,102736.38
2023-01-21T21:51:03.891Z,102740.69
2023-01-21T21:53:31.904Z,102736.06
2023-01-21T21:56:02.992Z,102742.22
2023-01-21T21:58:30.733Z,102750.16
2023-01-21T22:01:07.113Z,102747.53
2023-01-21T22:03:34.943Z,102758.63
2023-01-21T22:06:04.518Z,102749.09
2023-01-21T22:08:32.752Z,102751.91
2023-01-21T22:11:01.030Z,102753.50
2023-01-21T22:13:29.655Z,102753.25
2023-01-21T22:15:58.940Z,102750.72
2023-01-21T22:18:27.976Z,102748.47
2023-01-21T22:21:01.141Z,102760.72
2023-01-21T22:23:32.352Z,102754.28
2023-01-21T22:26:01.963Z,102762.00
2023-01-21T22:28:30.205Z,102760.91
2023-01-21T22:31:04.117Z,102768.19
2023-01-21T22:33:32.295Z,102768.81
2023-01-21T22:36:03.167Z,102772.25
2023-01-21T22:38:34.066Z,102773.84
2023-01-21T22:41:02.214Z,102774.78
2023-01-21T22:43:30.074Z,102772.28
2023-01-21T22:45:59.104Z,102764.94
2023-01-21T22:48:27.118Z,102773.84
2023-01-21T22:50:56.848Z,102778.19
2023-01-21T22:53:25.575Z,102787.13
2023-01-21T22:55:55.814Z,102794.09
2023-01-21T22:58:23.622Z,102787.91
2023-01-21T23:00:52.585Z,102790.72
2023-01-21T23:03:21.759Z,102789.66
2023-01-21T23:05:49.585Z,102783.47
2023-01-21T23:08:18.118Z,102787.72
2023-01-21T23:10:46.751Z,102786.59
2023-01-21T23:13:16.984Z,102789.09
2023-01-21T23:15:45.673Z,102789.78
2023-01-21T23:18:14.996Z,102787.31
2023-01-21T23:20:43.269Z,102790.59
2023-01-21T23:23:12.383Z,102787.00
2023-01-21T23:25:40.941Z,102795.03
2023-01-21T23:28:09.337Z,102792.75
2023-01-21T23:30:38.552Z,102797.03
2023-01-21T23:33:06.367Z,102791.91
2023-01-21T23:35:35.085Z,102791.63
2023-01-21T23:38:03.973Z,102796.09
2023-01-21T23:40:31.747Z,102796.41
2023-01-21T23:42:59.479Z,102804.00
2023-01-21T23:45:27.282Z,102801.09
2023-01-21T23:47:56.528Z,102805.00
2023-01-21T23:50:24.410Z,102806.97
2023-01-21T23:52:52.181Z,102790.53
2023-01-21T23:55:20.038Z,102791.63
2023-01-21T23:57:47.798Z,102795.00
